Time;durP1;ratioP1;P1;durP2;ratioP2;P2;SDS_P1;SDS_P2;PMS_P1;PMS_P2;Temp;Humidity;BMP_temperature;BMP_pressure;BME280_temperature;BME280_humidity;BME280_pressure;Samples;Min_cycle;Max_cycle;Signal;HPM_P1;HPM_P2
2023/09/25 00:00:36;;;;;;;7.30;3.63;;;12.20;99.90;;;;;;5072899;28;20412;-72
2023/09/25 00:03:03;;;;;;;3.75;2.72;;;12.20;99.90;;;;;;5073016;28;20153;-72
2023/09/25 00:05:30;;;;;;;4.07;2.72;;;12.10;99.90;;;;;;5072978;28;20408;-71
2023/09/25 00:07:56;;;;;;;5.85;2.58;;;12.10;99.90;;;;;;5071760;28;20039;-71
2023/09/25 00:10:22;;;;;;;8.95;3.33;;;12.10;99.90;;;;;;5072904;28;20043;-71
2023/09/25 00:12:48;;;;;;;4.15;3.15;;;12.10;99.90;;;;;;5072847;28;20080;-71
2023/09/25 00:15:14;;;;;;;5.82;2.90;;;12.10;99.90;;;;;;5071650;28;20084;-71
2023/09/25 00:17:42;;;;;;;3.58;3.08;;;12.20;99.90;;;;;;5072807;28;20127;-71
2023/09/25 00:20:10;;;;;;;4.10;3.00;;;12.20;99.90;;;;;;5054703;28;20506;-71
2023/09/25 00:22:40;;;;;;;6.63;3.88;;;12.20;99.90;;;;;;5072485;28;20078;-72
2023/09/25 00:25:06;;;;;;;5.13;3.42;;;12.20;99.90;;;;;;5072822;28;20115;-71
2023/09/25 00:27:32;;;;;;;5.95;3.45;;;12.30;99.90;;;;;;5072562;28;20116;-71
2023/09/25 00:29:58;;;;;;;6.10;3.25;;;12.30;99.90;;;;;;5071149;28;20072;-71
2023/09/25 00:32:24;;;;;;;5.53;3.33;;;12.30;99.90;;;;;;5071095;28;20037;-71
2023/09/25 00:34:49;;;;;;;4.35;3.17;;;12.30;99.90;;;;;;5071061;28;20063;-71
2023/09/25 00:37:15;;;;;;;4.55;3.15;;;12.30;99.90;;;;;;5070639;28;20558;-72
2023/09/25 00:39:42;;;;;;;5.82;2.80;;;12.30;99.90;;;;;;5072094;28;20048;-71
2023/09/25 00:42:10;;;;;;;4.93;3.30;;;12.30;99.90;;;;;;5071886;28;20644;-71
2023/09/25 00:44:35;;;;;;;7.35;4.22;;;12.30;99.90;;;;;;5072200;28;20182;-72
2023/09/25 00:47:01;;;;;;;5.80;3.38;;;12.40;99.90;;;;;;5070993;28;20112;-71
2023/09/25 00:49:28;;;;;;;4.53;3.33;;;12.40;99.90;;;;;;5071787;28;20032;-71
2023/09/25 00:51:54;;;;;;;5.93;3.22;;;12.40;99.90;;;;;;5072185;28;20129;-71
2023/09/25 00:54:20;;;;;;;6.07;3.15;;;12.40;99.90;;;;;;5072166;28;20117;-71
2023/09/25 00:56:49;;;;;;;5.50;3.00;;;12.40;99.90;;;;;;5072116;28;20094;-71
2023/09/25 00:59:16;;;;;;;8.48;3.00;;;12.50;99.90;;;;;;5070489;28;20432;-72
2023/09/25 01:01:42;;;;;;;5.85;2.97;;;12.40;99.90;;;;;;5070282;28;20423;-72
2023/09/25 01:04:08;;;;;;;5.82;3.10;;;12.50;99.90;;;;;;5071963;28;20040;-72
2023/09/25 01:06:34;;;;;;;7.82;3.83;;;12.50;99.90;;;;;;5070638;28;20084;-72
2023/09/25 01:08:59;;;;;;;4.50;3.28;;;12.50;99.90;;;;;;5070168;28;20044;-72
2023/09/25 01:11:25;;;;;;;7.65;3.38;;;12.50;99.90;;;;;;5070515;28;20037;-72
2023/09/25 01:13:51;;;;;;;4.40;2.90;;;12.40;99.90;;;;;;5070505;28;20388;-72
2023/09/25 01:16:18;;;;;;;5.25;2.80;;;12.40;99.90;;;;;;5053819;28;20389;-71
2023/09/25 01:18:44;;;;;;;6.10;3.00;;;12.40;99.90;;;;;;5070166;28;20036;-71
2023/09/25 01:21:10;;;;;;;9.75;3.42;;;12.30;99.90;;;;;;5071623;28;20437;-71
2023/09/25 01:23:36;;;;;;;6.05;3.67;;;12.30;99.90;;;;;;5071933;28;20090;-71
2023/09/25 01:26:02;;;;;;;4.15;3.05;;;12.30;99.90;;;;;;5070640;28;20033;-71
2023/09/25 01:28:29;;;;;;;4.22;3.30;;;12.30;99.90;;;;;;5071713;28;20037;-72
2023/09/25 01:30:54;;;;;;;5.07;3.45;;;12.30;99.90;;;;;;5071605;28;20055;-72
2023/09/25 01:33:20;;;;;;;4.40;3.13;;;12.30;99.90;;;;;;5071425;28;20036;-71
2023/09/25 01:35:46;;;;;;;5.18;3.58;;;12.30;99.90;;;;;;5071802;28;20119;-71
2023/09/25 01:38:12;;;;;;;6.53;3.53;;;12.30;99.90;;;;;;5071690;28;20044;-71
2023/09/25 01:40:37;;;;;;;3.92;3.17;;;12.30;99.90;;;;;;5070060;28;20518;-71
2023/09/25 01:43:03;;;;;;;4.90;3.33;;;12.20;99.90;;;;;;5070233;28;20055;-72
2023/09/25 01:45:29;;;;;;;5.65;3.47;;;12.20;99.90;;;;;;5071525;28;20044;-71
2023/09/25 01:47:56;;;;;;;5.50;3.70;;;12.20;99.90;;;;;;5070144;28;20403;-71
2023/09/25 01:50:24;;;;;;;5.22;3.22;;;12.20;99.90;;;;;;5069962;28;20098;-72
2023/09/25 01:52:59;;;;;;;4.20;2.78;;;12.20;99.90;;;;;;5070578;28;20075;-71
2023/09/25 01:55:31;;;;;;;4.75;3.55;;;12.10;99.90;;;;;;5071339;28;20040;-71
2023/09/25 01:57:57;;;;;;;7.20;3.58;;;12.10;99.90;;;;;;5069988;28;20044;-71
2023/09/25 02:00:23;;;;;;;4.03;2.97;;;12.10;99.90;;;;;;5070854;28;20101;-71
2023/09/25 02:02:48;;;;;;;7.97;3.40;;;12.10;99.90;;;;;;5071480;28;20055;-71
2023/09/25 02:05:14;;;;;;;4.55;3.13;;;12.10;99.90;;;;;;5071379;28;20040;-71
2023/09/25 02:07:40;;;;;;;5.07;3.28;;;12.10;99.90;;;;;;5069847;28;20119;-71
2023/09/25 02:10:06;;;;;;;5.57;3.20;;;12.10;99.90;;;;;;5070002;28;20052;-72
2023/09/25 02:12:32;;;;;;;4.80;3.17;;;12.10;99.90;;;;;;5069928;28;20032;-73
2023/09/25 02:15:00;;;;;;;4.50;3.03;;;12.00;99.90;;;;;;5073463;28;20113;-71
2023/09/25 02:17:27;;;;;;;4.63;3.33;;;12.00;99.90;;;;;;5073772;28;20403;-72
2023/09/25 02:20:13;;;;;;;4.20;3.45;;;12.00;99.90;;;;;;5073373;28;20063;-71
2023/09/25 02:22:39;;;;;;;5.32;3.42;;;12.00;99.90;;;;;;5074909;28;20045;-72
2023/09/25 02:25:05;;;;;;;6.18;3.22;;;12.00;99.90;;;;;;5073806;28;20139;-71
2023/09/25 02:27:31;;;;;;;6.00;2.92;;;12.00;99.90;;;;;;5073439;28;20535;-71
2023/09/25 02:29:57;;;;;;;6.10;3.95;;;12.00;99.90;;;;;;5074429;28;20404;-71
2023/09/25 02:32:23;;;;;;;5.18;3.50;;;11.90;99.90;;;;;;5056752;28;20072;-71
2023/09/25 02:34:48;;;;;;;5.18;3.20;;;11.90;99.90;;;;;;5074664;28;20119;-71
2023/09/25 02:37:14;;;;;;;3.60;3.00;;;11.90;99.90;;;;;;5074549;28;20052;-72
2023/09/25 02:39:39;;;;;;;5.57;3.35;;;11.90;99.90;;;;;;5074415;28;20052;-71
2023/09/25 02:42:05;;;;;;;4.53;3.00;;;11.90;99.90;;;;;;5072839;28;20040;-71
2023/09/25 02:44:30;;;;;;;4.75;2.70;;;11.90;99.90;;;;;;5074586;28;20049;-71
2023/09/25 02:46:56;;;;;;;5.88;3.28;;;11.90;99.90;;;;;;5074644;28;20028;-71
2023/09/25 02:49:21;;;;;;;6.95;3.42;;;11.90;99.90;;;;;;5074231;28;20037;-71
2023/09/25 02:51:47;;;;;;;5.70;3.67;;;11.90;99.90;;;;;;5074365;28;20036;-71
2023/09/25 02:54:13;;;;;;;6.47;3.63;;;11.80;99.90;;;;;;5072997;28;20182;-71
2023/09/25 02:56:38;;;;;;;6.72;3.72;;;11.90;99.90;;;;;;5072937;28;20051;-71
2023/09/25 02:59:04;;;;;;;6.75;3.88;;;11.80;99.90;;;;;;5074147;28;20044;-71
2023/09/25 03:01:32;;;;;;;8.88;3.03;;;11.90;99.90;;;;;;5074227;28;20059;-72
2023/09/25 03:03:58;;;;;;;6.95;3.60;;;11.80;99.90;;;;;;5074357;28;20048;-71
2023/09/25 03:06:23;;;;;;;6.20;2.80;;;11.80;99.90;;;;;;5074149;28;20132;-71
2023/09/25 03:08:49;;;;;;;4.88;3.10;;;11.70;99.90;;;;;;5073995;28;20621;-71
2023/09/25 03:11:14;;;;;;;4.80;3.25;;;11.80;99.90;;;;;;5073807;28;20119;-71
2023/09/25 03:13:40;;;;;;;5.28;3.33;;;11.70;99.90;;;;;;5074216;28;20109;-71
2023/09/25 03:16:13;;;;;;;5.53;3.17;;;11.80;99.90;;;;;;5072975;28;20102;-71
2023/09/25 03:18:39;;;;;;;4.93;3.22;;;11.80;99.90;;;;;;5074182;28;20048;-71
2023/09/25 03:21:13;;;;;;;5.10;3.53;;;11.70;99.90;;;;;;5055653;28;20483;-71
2023/09/25 03:23:40;;;;;;;5.68;3.22;;;11.70;99.90;;;;;;5073734;28;20048;-71
2023/09/25 03:26:19;;;;;;;6.20;2.95;;;11.70;99.90;;;;;;5073896;28;20036;-71
2023/09/25 03:28:46;;;;;;;6.65;4.30;;;11.70;99.90;;;;;;5073805;28;20068;-71
2023/09/25 03:31:12;;;;;;;5.45;3.63;;;11.70;99.90;;;;;;5073458;28;20562;-72
2023/09/25 03:33:39;;;;;;;5.82;3.80;;;11.70;99.90;;;;;;5072481;28;20047;-71
2023/09/25 03:36:05;;;;;;;6.40;4.13;;;11.70;99.90;;;;;;5073616;28;20043;-71
2023/09/25 03:38:31;;;;;;;6.80;3.42;;;11.70;99.90;;;;;;5071861;28;20500;-71
2023/09/25 03:40:57;;;;;;;5.45;3.67;;;11.70;99.90;;;;;;5073335;28;20033;-71
2023/09/25 03:43:22;;;;;;;4.20;3.28;;;11.70;99.90;;;;;;5072347;28;20079;-71
2023/09/25 03:45:48;;;;;;;5.38;3.30;;;11.60;99.90;;;;;;5073532;28;20036;-71
2023/09/25 03:48:14;;;;;;;6.65;4.03;;;11.70;99.90;;;;;;5073309;28;20036;-70
2023/09/25 03:50:40;;;;;;;4.45;3.40;;;11.60;99.90;;;;;;5073151;28;20039;-71
2023/09/25 03:53:05;;;;;;;5.22;3.83;;;11.70;99.90;;;;;;5073054;28;20561;-71
2023/09/25 03:55:31;;;;;;;7.50;3.28;;;11.60;99.90;;;;;;5073403;28;20036;-71
2023/09/25 03:57:56;;;;;;;4.90;3.40;;;11.70;99.90;;;;;;5073312;28;20044;-72
2023/09/25 04:00:23;;;;;;;6.40;3.60;;;11.70;99.90;;;;;;5088371;28;20093;-73
2023/09/25 04:02:49;;;;;;;5.75;3.80;;;11.60;99.90;;;;;;5071657;28;20079;-72
2023/09/25 04:05:14;;;;;;;5.78;3.85;;;11.60;99.90;;;;;;5072993;28;20056;-72
2023/09/25 04:07:40;;;;;;;6.60;3.60;;;11.60;99.90;;;;;;5071587;28;20491;-72
2023/09/25 04:10:07;;;;;;;5.32;3.67;;;11.60;99.90;;;;;;5072787;28;20047;-72
2023/09/25 04:12:34;;;;;;;5.05;3.28;;;11.60;99.90;;;;;;5071467;28;20048;-73
2023/09/25 04:15:00;;;;;;;5.63;3.47;;;11.70;99.90;;;;;;5072958;28;20036;-73
2023/09/25 04:17:27;;;;;;;5.53;4.10;;;11.60;99.90;;;;;;5071618;28;20079;-72
2023/09/25 04:19:53;;;;;;;5.10;3.58;;;11.60;99.90;;;;;;5072423;28;20032;-72
2023/09/25 04:22:19;;;;;;;4.97;3.60;;;11.60;99.90;;;;;;5072666;28;20048;-72
2023/09/25 04:24:45;;;;;;;6.18;3.78;;;11.70;99.90;;;;;;5071387;28;20107;-73
2023/09/25 04:27:11;;;;;;;6.88;3.53;;;11.60;99.90;;;;;;5072790;28;20037;-72
2023/09/25 04:29:38;;;;;;;8.70;4.10;;;11.60;99.90;;;;;;5072265;28;20047;-72
2023/09/25 04:32:04;;;;;;;6.03;3.30;;;11.60;99.90;;;;;;5072509;28;20413;-73
2023/09/25 04:34:30;;;;;;;7.05;4.63;;;11.70;99.90;;;;;;5088011;28;20053;-72
2023/09/25 04:36:55;;;;;;;6.70;3.88;;;11.60;99.90;;;;;;5070605;28;20047;-71
2023/09/25 04:39:21;;;;;;;5.60;3.75;;;11.60;99.90;;;;;;5072254;28;20047;-72
2023/09/25 04:41:47;;;;;;;7.60;4.38;;;11.60;99.90;;;;;;5070725;28;20462;-71
2023/09/25 04:44:13;;;;;;;6.00;2.85;;;11.70;99.90;;;;;;5054376;28;20052;-72
2023/09/25 04:46:39;;;;;;;5.53;4.57;;;11.70;99.90;;;;;;5070948;28;20037;-71
2023/09/25 04:49:07;;;;;;;7.20;3.67;;;11.70;99.90;;;;;;5071923;28;20032;-72
2023/09/25 04:51:34;;;;;;;5.90;3.40;;;11.70;99.90;;;;;;5072385;28;20040;-71
2023/09/25 04:54:00;;;;;;;5.97;3.53;;;11.70;99.90;;;;;;5072376;28;20434;-71
2023/09/25 04:56:27;;;;;;;6.90;3.50;;;11.60;99.90;;;;;;5070824;28;20132;-71
2023/09/25 04:58:53;;;;;;;6.90;4.03;;;11.60;99.90;;;;;;5070723;28;20048;-71
2023/09/25 05:01:19;;;;;;;6.40;4.90;;;11.60;99.90;;;;;;5071895;28;20045;-71
2023/09/25 05:03:45;;;;;;;6.72;4.13;;;11.60;99.90;;;;;;5072144;28;20057;-71
2023/09/25 05:06:13;;;;;;;8.10;3.67;;;11.60;99.90;;;;;;5071137;28;20032;-71
2023/09/25 05:08:39;;;;;;;6.50;3.42;;;11.70;99.90;;;;;;5071939;28;20041;-71
2023/09/25 05:11:07;;;;;;;5.35;3.50;;;11.60;99.90;;;;;;5071756;28;20036;-73
2023/09/25 05:13:33;;;;;;;4.88;3.55;;;11.60;99.90;;;;;;5071744;28;20525;-72
2023/09/25 05:16:01;;;;;;;7.63;3.88;;;11.70;99.90;;;;;;5071679;28;20079;-71
2023/09/25 05:18:27;;;;;;;4.43;3.50;;;11.70;99.90;;;;;;5070087;28;20049;-71
2023/09/25 05:20:53;;;;;;;4.80;3.55;;;11.70;99.90;;;;;;5070208;28;20041;-71
2023/09/25 05:23:20;;;;;;;6.10;4.03;;;11.70;99.90;;;;;;5070657;28;20037;-71
2023/09/25 05:25:46;;;;;;;4.15;3.20;;;11.70;99.90;;;;;;5071778;28;20048;-72
2023/09/25 05:28:12;;;;;;;6.68;3.38;;;11.70;99.90;;;;;;5071400;28;20044;-71
2023/09/25 05:30:38;;;;;;;4.13;2.97;;;11.70;99.90;;;;;;5071068;28;20032;-72
2023/09/25 05:33:03;;;;;;;6.95;3.00;;;11.70;99.90;;;;;;5069606;28;20045;-70
2023/09/25 05:35:30;;;;;;;6.32;3.20;;;11.80;99.90;;;;;;5071724;28;20550;-70
2023/09/25 05:37:56;;;;;;;4.10;3.40;;;11.70;99.90;;;;;;5071527;28;20036;-70
2023/09/25 05:40:22;;;;;;;5.97;3.08;;;11.80;99.90;;;;;;5071280;28;20115;-70
2023/09/25 05:42:49;;;;;;;4.25;3.17;;;11.80;99.90;;;;;;5071204;28;20056;-70
2023/09/25 05:45:17;;;;;;;5.47;3.03;;;11.90;99.90;;;;;;5070946;28;20029;-71
2023/09/25 05:47:45;;;;;;;5.07;3.00;;;11.90;99.90;;;;;;5071443;28;20040;-70
2023/09/25 05:50:11;;;;;;;5.72;3.17;;;11.90;99.90;;;;;;5073658;28;20040;-71
2023/09/25 05:52:38;;;;;;;7.13;3.60;;;12.00;99.90;;;;;;5073798;28;20496;-72
2023/09/25 05:55:06;;;;;;;5.38;3.00;;;12.00;99.90;;;;;;5057294;28;20040;-73
2023/09/25 05:57:32;;;;;;;6.28;3.40;;;12.00;99.90;;;;;;5074082;28;20487;-72
2023/09/25 05:59:59;;;;;;;4.18;2.80;;;12.00;99.90;;;;;;5074823;28;20037;-73
2023/09/25 06:02:25;;;;;;;4.50;3.03;;;12.10;99.90;;;;;;5075336;28;20404;-72
2023/09/25 06:04:51;;;;;;;6.05;3.10;;;12.10;99.90;;;;;;5074109;28;20403;-73
2023/09/25 06:07:16;;;;;;;6.28;3.45;;;12.10;99.90;;;;;;5073771;28;20045;-73
2023/09/25 06:09:43;;;;;;;5.55;3.30;;;12.10;99.90;;;;;;5073469;28;20124;-72
2023/09/25 06:12:09;;;;;;;4.68;3.42;;;12.10;99.90;;;;;;5073642;28;20051;-72
2023/09/25 06:14:35;;;;;;;3.75;3.20;;;12.10;99.90;;;;;;5073586;28;20474;-72
2023/09/25 06:17:00;;;;;;;4.97;2.65;;;12.20;99.90;;;;;;5057051;28;20047;-72
2023/09/25 06:19:26;;;;;;;4.97;3.03;;;12.20;99.90;;;;;;5073228;28;20040;-73
2023/09/25 06:21:53;;;;;;;4.20;3.05;;;12.20;99.90;;;;;;5074625;28;20033;-72
2023/09/25 06:24:18;;;;;;;4.63;2.95;;;12.30;99.90;;;;;;5057192;28;20488;-72
2023/09/25 06:26:47;;;;;;;5.40;3.28;;;12.30;99.90;;;;;;5074767;28;20115;-72
2023/09/25 06:29:13;;;;;;;4.75;3.05;;;12.40;99.90;;;;;;5074395;28;20480;-72
2023/09/25 06:31:40;;;;;;;5.80;3.50;;;12.40;99.90;;;;;;5073496;28;20040;-72
2023/09/25 06:34:09;;;;;;;3.80;3.15;;;12.40;99.90;;;;;;5073278;28;20079;-72
2023/09/25 06:36:35;;;;;;;4.22;3.13;;;12.50;99.90;;;;;;5074670;28;20040;-72
2023/09/25 06:39:01;;;;;;;4.97;3.40;;;12.50;99.90;;;;;;5073039;28;20052;-72
2023/09/25 06:41:26;;;;;;;7.60;3.30;;;12.60;99.90;;;;;;5056203;28;20036;-72
2023/09/25 06:43:54;;;;;;;6.05;2.75;;;12.60;99.90;;;;;;5073368;28;20083;-72
2023/09/25 06:46:20;;;;;;;5.93;3.33;;;12.70;99.90;;;;;;5073153;28;20044;-72
2023/09/25 06:48:50;;;;;;;7.68;3.47;;;12.80;99.90;;;;;;5073190;28;20033;-72
2023/09/25 06:51:16;;;;;;;6.78;2.78;;;12.90;99.90;;;;;;5072815;28;20055;-72
2023/09/25 06:53:42;;;;;;;3.83;2.47;;;12.90;99.90;;;;;;5073108;28;20045;-72
2023/09/25 06:56:08;;;;;;;7.60;3.13;;;12.90;99.90;;;;;;5056223;28;20044;-72
2023/09/25 06:58:34;;;;;;;5.28;2.58;;;13.00;99.90;;;;;;5073671;28;20041;-72
2023/09/25 07:00:59;;;;;;;4.82;2.90;;;13.10;99.90;;;;;;5073906;28;20403;-72
2023/09/25 07:03:26;;;;;;;7.05;3.03;;;13.00;99.90;;;;;;5072907;28;20064;-72
2023/09/25 07:05:51;;;;;;;8.07;2.90;;;13.10;99.90;;;;;;5072860;28;20032;-72
2023/09/25 07:08:18;;;;;;;6.28;2.88;;;13.10;99.90;;;;;;5073021;28;20094;-72
2023/09/25 07:10:48;;;;;;;5.65;3.15;;;13.20;99.90;;;;;;5055804;28;20068;-74
2023/09/25 07:13:14;;;;;;;5.70;3.08;;;13.20;99.90;;;;;;5072780;28;20048;-75
2023/09/25 07:15:40;;;;;;;4.28;2.92;;;13.20;99.90;;;;;;5073970;28;20051;-75
2023/09/25 07:18:06;;;;;;;5.28;3.03;;;13.20;99.90;;;;;;5055969;28;20040;-75
2023/09/25 07:20:31;;;;;;;4.10;2.78;;;13.30;99.90;;;;;;5073631;28;20044;-75
2023/09/25 07:22:57;;;;;;;3.75;2.53;;;13.40;99.90;;;;;;5073918;28;20045;-75
2023/09/25 07:25:23;;;;;;;4.10;2.50;;;13.40;99.90;;;;;;5073774;28;20523;-75
2023/09/25 07:27:48;;;;;;;6.07;2.83;;;13.50;99.90;;;;;;5073992;28;20044;-75
2023/09/25 07:30:14;;;;;;;6.00;2.78;;;13.50;99.90;;;;;;5073648;28;20415;-75
2023/09/25 07:32:42;;;;;;;6.22;2.90;;;13.60;99.90;;;;;;5072294;28;20102;-75
2023/09/25 07:35:09;;;;;;;9.13;3.60;;;13.60;99.90;;;;;;5073951;28;20116;-75
2023/09/25 07:37:37;;;;;;;5.45;3.20;;;13.70;99.90;;;;;;5072639;28;20044;-75
2023/09/25 07:40:10;;;;;;;5.68;2.47;;;13.70;99.90;;;;;;5055277;28;20079;-75
2023/09/25 07:42:36;;;;;;;5.00;2.60;;;13.80;99.90;;;;;;5048752;22;20524;-70
2023/09/25 07:45:05;;;;;;;6.53;2.55;;;13.90;99.90;;;;;;4991192;28;20050;-70
2023/09/25 07:47:31;;;;;;;3.95;2.50;;;13.90;99.90;;;;;;4991033;28;20038;-70
2023/09/25 07:49:57;;;;;;;5.30;2.67;;;14.00;99.90;;;;;;4956661;28;20049;-70
2023/09/25 07:52:24;;;;;;;5.57;2.60;;;14.10;99.90;;;;;;4991129;28;20038;-70
2023/09/25 07:54:51;;;;;;;3.53;2.40;;;14.10;99.90;;;;;;4991144;28;20432;-70
2023/09/25 07:57:21;;;;;;;3.88;2.30;;;14.20;99.90;;;;;;4990892;28;20467;-70
2023/09/25 07:59:48;;;;;;;3.95;2.30;;;14.30;99.90;;;;;;4990764;28;20042;-70
2023/09/25 08:02:20;;;;;;;4.50;2.40;;;14.40;99.90;;;;;;4990685;28;20042;-70
2023/09/25 08:04:48;;;;;;;2.90;2.00;;;14.70;99.90;;;;;;4990934;28;20039;-70
2023/09/25 08:07:14;;;;;;;4.65;2.20;;;14.80;99.90;;;;;;4990860;28;20074;-71
2023/09/25 08:09:39;;;;;;;3.75;2.38;;;15.00;99.90;;;;;;4990296;28;20084;-70
2023/09/25 08:12:05;;;;;;;3.42;2.20;;;15.20;99.90;;;;;;4989747;28;20115;-70
2023/09/25 08:14:32;;;;;;;3.10;1.88;;;15.30;99.90;;;;;;4990718;28;20046;-70
2023/09/25 08:16:58;;;;;;;4.30;1.80;;;15.40;99.90;;;;;;4990568;28;20042;-70
2023/09/25 08:19:24;;;;;;;5.03;2.53;;;15.50;99.90;;;;;;4990570;28;20577;-71
2023/09/25 08:21:51;;;;;;;5.53;1.92;;;15.60;99.90;;;;;;4990536;28;20046;-70
2023/09/25 08:24:17;;;;;;;3.72;1.90;;;15.60;99.90;;;;;;4990618;28;20047;-70
2023/09/25 08:26:46;;;;;;;4.97;2.22;;;15.60;99.90;;;;;;4990503;28;20039;-70
2023/09/25 08:29:16;;;;;;;4.45;1.88;;;15.60;99.90;;;;;;4990122;28;20043;-70
2023/09/25 08:31:43;;;;;;;7.85;1.90;;;15.60;99.90;;;;;;4972840;28;20379;-70
2023/09/25 08:34:09;;;;;;;3.92;2.30;;;15.60;99.90;;;;;;4990502;28;20046;-70
2023/09/25 08:36:35;;;;;;;3.70;2.10;;;15.70;99.90;;;;;;4990484;28;20060;-71
2023/09/25 08:39:00;;;;;;;5.15;2.15;;;15.70;99.90;;;;;;4990176;28;20501;-70
2023/09/25 08:41:27;;;;;;;4.55;2.25;;;15.80;99.90;;;;;;4972949;28;20042;-70
2023/09/25 08:43:52;;;;;;;4.78;1.88;;;15.80;99.90;;;;;;4972839;28;20085;-71
2023/09/25 08:46:19;;;;;;;5.78;1.88;;;15.90;99.90;;;;;;4990142;28;20474;-70
2023/09/25 08:48:45;;;;;;;7.20;2.35;;;15.90;99.90;;;;;;4990497;28;20034;-70
2023/09/25 08:51:11;;;;;;;4.32;1.85;;;16.00;99.90;;;;;;4972753;28;20084;-70
2023/09/25 08:53:37;;;;;;;2.42;1.58;;;16.00;99.90;;;;;;4990169;28;20509;-70
2023/09/25 08:56:04;;;;;;;4.28;2.10;;;16.10;99.90;;;;;;4972955;28;20138;-70
2023/09/25 08:58:31;;;;;;;3.45;1.80;;;16.20;99.90;;;;;;4973219;28;20038;-70
2023/09/25 09:00:58;;;;;;;4.30;2.13;;;16.30;99.90;;;;;;4990259;28;20577;-71
2023/09/25 09:03:26;;;;;;;4.65;1.98;;;16.40;99.90;;;;;;4972917;28;20096;-71
2023/09/25 09:05:53;;;;;;;3.20;2.03;;;16.50;99.90;;;;;;4990328;28;20104;-70
2023/09/25 09:08:19;;;;;;;3.08;1.70;;;16.70;99.90;;;;;;4972969;28;20080;-70
2023/09/25 09:10:46;;;;;;;4.25;2.00;;;16.90;99.90;;;;;;4972604;28;20074;-70
2023/09/25 09:13:12;;;;;;;4.72;1.67;;;17.10;99.90;;;;;;4989897;28;20042;-71
2023/09/25 09:15:39;;;;;;;2.28;1.50;;;17.20;99.90;;;;;;4972532;28;20038;-71
2023/09/25 09:18:20;;;;;;;6.90;1.80;;;17.30;99.90;;;;;;4972731;28;20528;-70
2023/09/25 09:20:46;;;;;;;3.35;1.70;;;17.20;99.90;;;;;;4972065;28;20038;-71
2023/09/25 09:23:11;;;;;;;3.05;1.75;;;17.20;99.90;;;;;;4971937;28;20045;-70
2023/09/25 09:25:37;;;;;;;3.88;1.70;;;17.10;99.90;;;;;;4972303;28;20091;-70
2023/09/25 09:28:05;;;;;;;2.65;1.90;;;17.10;99.90;;;;;;4972270;28;20046;-71
2023/09/25 09:30:32;;;;;;;4.60;1.73;;;17.30;99.90;;;;;;4971930;28;20087;-71
2023/09/25 09:32:57;;;;;;;5.00;1.77;;;17.40;99.90;;;;;;4989683;28;20038;-70
2023/09/25 09:35:26;;;;;;;4.43;1.70;;;17.60;99.90;;;;;;4972182;28;20451;-70
2023/09/25 09:37:54;;;;;;;3.15;1.75;;;17.70;99.90;;;;;;5007877;28;20067;-71
2023/09/25 09:40:21;;;;;;;3.17;1.67;;;17.80;99.90;;;;;;4991422;28;20050;-71
2023/09/25 09:42:50;;;;;;;4.45;1.83;;;17.80;99.90;;;;;;4975344;28;20034;-71
2023/09/25 09:45:19;;;;;;;4.85;1.60;;;17.80;99.90;;;;;;5007906;28;20113;-70
2023/09/25 09:47:47;;;;;;;4.35;1.95;;;17.90;99.90;;;;;;4987839;28;20522;-71
2023/09/25 09:50:17;;;;;;;2.17;1.40;;;18.00;99.90;;;;;;4955574;28;20070;-70
2023/09/25 09:52:44;;;;;;;5.38;1.60;;;18.10;99.90;;;;;;5031423;28;20521;-70
2023/09/25 09:55:12;;;;;;;3.78;1.58;;;18.10;99.90;;;;;;5031762;28;20038;-70
2023/09/25 09:57:39;;;;;;;3.45;1.58;;;18.10;99.90;;;;;;5079385;28;20081;-70
2023/09/25 10:00:08;;;;;;;3.05;1.35;;;18.20;99.90;;;;;;5073204;28;20028;-71
2023/09/25 10:02:35;;;;;;;3.17;1.63;;;18.20;99.90;;;;;;5073198;28;20514;-70
2023/09/25 10:05:02;;;;;;;2.55;1.38;;;18.20;99.90;;;;;;5091525;28;20526;-71
2023/09/25 10:07:28;;;;;;;3.00;1.63;;;18.20;99.90;;;;;;5073651;28;20040;-70
2023/09/25 10:09:58;;;;;;;5.55;1.75;;;18.20;99.90;;;;;;5073143;28;20510;-70
2023/09/25 10:12:59;;;;;;;2.60;1.20;;;18.20;99.90;;;;;;5091590;28;20097;-70
2023/09/25 10:15:25;;;;;;;4.18;1.80;;;18.20;99.90;;;;;;4973419;28;20053;-71
2023/09/25 10:17:53;;;;;;;3.22;1.88;;;18.10;99.90;;;;;;5053068;28;20055;-71
2023/09/25 10:20:36;;;;;;;1.92;1.30;;;18.20;99.90;;;;;;5072975;28;20035;-71
2023/09/25 10:23:09;;;;;;;4.78;1.60;;;18.20;99.90;;;;;;5073444;28;20040;-71
2023/09/25 10:25:46;;;;;;;2.60;1.50;;;18.30;99.90;;;;;;5073254;28;20040;-70
2023/09/25 10:28:22;;;;;;;3.85;2.13;;;18.40;99.90;;;;;;5073154;28;20032;-71
2023/09/25 10:30:49;;;;;;;4.78;1.90;;;18.30;99.90;;;;;;5091289;28;20040;-71
2023/09/25 10:33:17;;;;;;;4.10;2.03;;;18.30;99.90;;;;;;5091225;28;20044;-71
2023/09/25 10:35:44;;;;;;;3.10;2.15;;;18.20;99.90;;;;;;5094452;28;20044;-70
2023/09/25 10:38:21;;;;;;;4.15;2.03;;;18.20;99.90;;;;;;5059984;28;20086;-70
2023/09/25 10:40:49;;;;;;;3.17;1.60;;;18.30;99.90;;;;;;5094487;28;20078;-70
2023/09/25 10:43:24;;;;;;;3.97;1.77;;;18.30;99.90;;;;;;5076544;28;20059;-70
2023/09/25 10:45:52;;;;;;;4.43;1.65;;;18.20;99.90;;;;;;5095011;28;20032;-70
2023/09/25 10:48:18;;;;;;;4.07;1.80;;;18.30;99.90;;;;;;5094737;28;20092;-70
2023/09/25 10:50:44;;;;;;;3.47;1.75;;;18.30;99.90;;;;;;5094399;28;20031;-70
2023/09/25 10:53:17;;;;;;;3.25;1.95;;;18.40;99.90;;;;;;5076283;28;20503;-70
2023/09/25 10:55:43;;;;;;;3.38;1.98;;;18.40;99.90;;;;;;5076361;28;20078;-70
2023/09/25 10:58:12;;;;;;;3.35;1.70;;;18.50;99.90;;;;;;5094604;28;20408;-70
2023/09/25 11:00:39;;;;;;;4.10;2.28;;;18.40;99.90;;;;;;5076326;28;20159;-70
2023/09/25 11:03:05;;;;;;;2.55;1.48;;;18.40;99.90;;;;;;5076025;28;20184;-71
2023/09/25 11:05:32;;;;;;;3.42;1.50;;;18.50;99.90;;;;;;5059853;28;20062;-71
2023/09/25 11:07:59;;;;;;;3.28;1.25;;;18.60;99.90;;;;;;5075381;28;20040;-72
2023/09/25 11:10:34;;;;;;;4.35;1.75;;;18.80;99.90;;;;;;5075885;28;20036;-72
2023/09/25 11:13:00;;;;;;;2.80;1.45;;;18.80;99.90;;;;;;5048688;28;20042;-72
2023/09/25 11:15:36;;;;;;;3.15;1.73;;;19.10;99.90;;;;;;4991103;28;20132;-71
2023/09/25 11:18:03;;;;;;;4.47;1.77;;;19.20;99.90;;;;;;4973972;28;20123;-71
2023/09/25 11:20:33;;;;;;;4.00;1.83;;;19.20;99.90;;;;;;4991116;28;20061;-71
2023/09/25 11:23:08;;;;;;;5.25;1.80;;;19.30;99.90;;;;;;4991491;28;20171;-71
2023/09/25 11:25:42;;;;;;;4.43;2.20;;;19.40;99.90;;;;;;4973958;28;20069;-72
2023/09/25 11:28:08;;;;;;;2.85;1.52;;;19.60;99.90;;;;;;4990883;28;20161;-72
2023/09/25 11:30:34;;;;;;;5.35;1.83;;;19.70;99.90;;;;;;4990595;28;20506;-72
2023/09/25 11:33:08;;;;;;;4.55;1.50;;;19.70;99.90;;;;;;4990264;28;20034;-71
2023/09/25 11:35:37;;;;;;;5.30;1.90;;;19.80;99.90;;;;;;4988192;28;20038;-72
2023/09/25 11:38:11;;;;;;;6.07;1.95;;;19.90;99.90;;;;;;4990623;28;20413;-72
2023/09/25 11:40:38;;;;;;;3.95;1.67;;;20.00;99.90;;;;;;4988581;28;20117;-72
2023/09/25 11:43:04;;;;;;;2.25;1.60;;;19.90;99.90;;;;;;4990321;28;20050;-71
2023/09/25 11:45:30;;;;;;;3.30;1.80;;;19.90;99.90;;;;;;4990996;28;20041;-71
2023/09/25 11:47:56;;;;;;;4.10;2.08;;;19.90;99.90;;;;;;4991059;28;20042;-72
2023/09/25 11:50:22;;;;;;;4.38;2.15;;;19.90;99.90;;;;;;4990473;28;20584;-71
2023/09/25 11:52:47;;;;;;;3.35;1.83;;;20.00;99.90;;;;;;4990546;28;20046;-70
2023/09/25 11:55:16;;;;;;;2.42;1.38;;;20.00;99.90;;;;;;4991139;28;20038;-70
2023/09/25 11:57:43;;;;;;;4.90;1.77;;;20.10;99.90;;;;;;4990993;28;20387;-70
2023/09/25 12:00:13;;;;;;;6.72;3.30;;;20.10;99.90;;;;;;4990496;28;20126;-71
2023/09/25 12:02:41;;;;;;;9.32;2.95;;;20.10;99.90;;;;;;4990844;28;20073;-71
2023/09/25 12:05:07;;;;;;;10.43;3.17;;;20.10;99.90;;;;;;4973586;28;20056;-71
2023/09/25 12:07:36;;;;;;;8.95;2.45;;;20.10;99.90;;;;;;4990870;28;20038;-70
2023/09/25 12:10:06;;;;;;;10.52;2.28;;;20.10;99.90;;;;;;4990485;28;20498;-70
2023/09/25 12:12:39;;;;;;;3.70;1.77;;;20.20;99.90;;;;;;4990586;28;20042;-71
2023/09/25 12:15:05;;;;;;;;;;;20.20;99.90;;;;;;4991377;28;20038;-71
2023/09/25 12:17:32;;;;;;;2.83;1.50;;;20.20;99.90;;;;;;4989969;28;19941;-70
2023/09/25 12:20:05;;;;;;;3.45;1.80;;;20.20;99.90;;;;;;4990483;28;20038;-70
2023/09/25 12:22:31;;;;;;;3.63;1.77;;;20.30;99.90;;;;;;4990085;28;20094;-71
2023/09/25 12:24:57;;;;;;;5.25;1.55;;;20.30;99.90;;;;;;4989821;28;20113;-71
2023/09/25 12:27:22;;;;;;;4.82;1.63;;;20.30;99.90;;;;;;4990167;28;20038;-71
2023/09/25 12:29:48;;;;;;;5.07;1.75;;;20.30;99.90;;;;;;4989650;28;20413;-71
2023/09/25 12:32:14;;;;;;;2.90;1.52;;;20.30;99.90;;;;;;4989605;28;20046;-71
2023/09/25 12:34:39;;;;;;;3.70;1.50;;;20.30;99.90;;;;;;4990009;28;20042;-70
2023/09/25 12:37:06;;;;;;;3.58;1.58;;;20.40;99.90;;;;;;4972876;28;20046;-71
2023/09/25 12:39:31;;;;;;;5.28;1.63;;;20.40;99.90;;;;;;4989820;28;20086;-71
2023/09/25 12:41:57;;;;;;;3.47;1.58;;;20.40;99.90;;;;;;4989998;28;20077;-71
2023/09/25 12:44:23;;;;;;;3.83;2.00;;;20.50;99.90;;;;;;4990221;28;20046;-71
2023/09/25 12:46:49;;;;;;;3.53;1.50;;;20.50;99.90;;;;;;4990281;28;20050;-71